Aviation Digital Data Service (ADDS)

Output produced by METARs form (0420 UTC 19 February 2019)
found at http://www.aviationweather.gov/metar/data/
 
METAR text: KCID 190418Z 00000KT 5SM BR CLR M18/M18 A3054 RMK AO2 T11831183
Conditions at: KCID (CEDAR RAPIDS , IA, US) observed 0418 UTC 19 February 2019
Temperature: -18.3°C (-1°F)
Dewpoint: -18.3°C (-1°F) [RH = 100%]
Pressure (altimeter): 30.54 inches Hg (1034.3 mb)
Winds: calm
Visibility: 5 miles ( 8 km)
Ceiling: at least 12,000 feet AGL
Clouds: sky clear below 12,000 feet AGL
Weather: BR  (mist)

METAR text: KCID 190415Z 00000KT 1 1/2SM BR CLR M18/M18 A3054 RMK AO2 T11781183
Conditions at: KCID (CEDAR RAPIDS , IA, US) observed 0415 UTC 19 February 2019
Temperature: -17.8°C (-0°F)
Dewpoint: -18.3°C (-1°F) [RH = 96%]
Pressure (altimeter): 30.54 inches Hg (1034.3 mb)
Winds: calm
Visibility: 1.50 miles (2.41 km)
Ceiling: at least 12,000 feet AGL
Clouds: sky clear below 12,000 feet AGL
Weather: BR  (mist)

METAR text: KCID 190352Z 00000KT 5SM BR CLR M19/M20 A3054 RMK AO2 SLP365 I1000 T11941200
Conditions at: KCID (CEDAR RAPIDS , IA, US) observed 0352 UTC 19 February 2019
Temperature: -19.4°C (-3°F)
Dewpoint: -20.0°C (-4°F) [RH = 95%]
Pressure (altimeter): 30.54 inches Hg (1034.3 mb)
[Sea-level pressure: 1036.5 mb]
Winds: calm
Visibility: 5 miles ( 8 km)
Ceiling: at least 12,000 feet AGL
Clouds: sky clear below 12,000 feet AGL
Weather: BR  (mist)

METAR text: KCID 190252Z 31006KT 8SM CLR M17/M17 A3054 RMK AO2 SLP363 I1000 I3000 T11671172 51019
Conditions at: KCID (CEDAR RAPIDS , IA, US) observed 0252 UTC 19 February 2019
Temperature: -16.7°C ( 2°F)
Dewpoint: -17.2°C ( 1°F) [RH = 96%]
Pressure (altimeter): 30.54 inches Hg (1034.3 mb)
[Sea-level pressure: 1036.3 mb]
Winds: from the NW (310 degrees) at 7 MPH (6 knots; 3.1 m/s)
Visibility: 8 miles (13 km)
Ceiling: at least 12,000 feet AGL
Clouds: sky clear below 12,000 feet AGL
Weather: no significant weather observed at this time

METAR text: KCID 190152Z 00000KT 9SM CLR M17/M17 A3053 RMK AO2 SLP362 T11671172
Conditions at: KCID (CEDAR RAPIDS , IA, US) observed 0152 UTC 19 February 2019
Temperature: -16.7°C ( 2°F)
Dewpoint: -17.2°C ( 1°F) [RH = 96%]
Pressure (altimeter): 30.53 inches Hg (1033.9 mb)
[Sea-level pressure: 1036.2 mb]
Winds: calm
Visibility: 9 miles (14 km)
Ceiling: at least 12,000 feet AGL
Clouds: sky clear below 12,000 feet AGL
Weather: no significant weather observed at this time

METAR text: KCID 190052Z 30008KT 10SM CLR M15/M16 A3052 RMK AO2 SLP355 T11501161
Conditions at: KCID (CEDAR RAPIDS , IA, US) observed 0052 UTC 19 February 2019
Temperature: -15.0°C ( 5°F)
Dewpoint: -16.1°C ( 3°F) [RH = 91%]
Pressure (altimeter): 30.52 inches Hg (1033.6 mb)
[Sea-level pressure: 1035.5 mb]
Winds: from the WNW (300 degrees) at 9 MPH (8 knots; 4.1 m/s)
Visibility: 10 or more miles (16+ km)
Ceiling: at least 12,000 feet AGL
Clouds: sky clear below 12,000 feet AGL
Weather: no significant weather observed at this time

METAR text: KCID 182352Z 30008KT 10SM CLR M14/M15 A3048 RMK AO2 SLP343 T11391150 11078 21139 53013
Conditions at: KCID (CEDAR RAPIDS , IA, US) observed 2352 UTC 18 February 2019
Temperature: -13.9°C ( 7°F)
Dewpoint: -15.0°C ( 5°F) [RH = 91%]
Pressure (altimeter): 30.48 inches Hg (1032.3 mb)
[Sea-level pressure: 1034.3 mb]
Winds: from the WNW (300 degrees) at 9 MPH (8 knots; 4.1 m/s)
Visibility: 10 or more miles (16+ km)
Ceiling: at least 12,000 feet AGL
Clouds: sky clear below 12,000 feet AGL
Weather: no significant weather observed at this time

METAR text: KCID 182252Z 30008KT 10SM CLR M12/M14 A3046 RMK AO2 SLP333 T11171139
Conditions at: KCID (CEDAR RAPIDS , IA, US) observed 2252 UTC 18 February 2019
Temperature: -11.7°C (11°F)
Dewpoint: -13.9°C ( 7°F) [RH = 84%]
Pressure (altimeter): 30.46 inches Hg (1031.6 mb)
[Sea-level pressure: 1033.3 mb]
Winds: from the WNW (300 degrees) at 9 MPH (8 knots; 4.1 m/s)
Visibility: 10 or more miles (16+ km)
Ceiling: at least 12,000 feet AGL
Clouds: sky clear below 12,000 feet AGL
Weather: no significant weather observed at this time

METAR text: KCID 182152Z 28008KT 10SM CLR M10/M12 A3045 RMK AO2 SLP329 T11001122
Conditions at: KCID (CEDAR RAPIDS , IA, US) observed 2152 UTC 18 February 2019
Temperature: -10.0°C (14°F)
Dewpoint: -12.2°C (10°F) [RH = 84%]
Pressure (altimeter): 30.45 inches Hg (1031.2 mb)
[Sea-level pressure: 1032.9 mb]
Winds: from the W (280 degrees) at 9 MPH (8 knots; 4.1 m/s)
Visibility: 10 or more miles (16+ km)
Ceiling: at least 12,000 feet AGL
Clouds: sky clear below 12,000 feet AGL
Weather: no significant weather observed at this time

METAR text: KCID 182052Z 27006KT 10SM CLR M08/M11 A3045 RMK AO2 SLP326 T10831106 51011
Conditions at: KCID (CEDAR RAPIDS , IA, US) observed 2052 UTC 18 February 2019
Temperature: -8.3°C (17°F)
Dewpoint: -10.6°C (13°F) [RH = 83%]
Pressure (altimeter): 30.45 inches Hg (1031.2 mb)
[Sea-level pressure: 1032.6 mb]
Winds: from the W (270 degrees) at 7 MPH (6 knots; 3.1 m/s)
Visibility: 10 or more miles (16+ km)
Ceiling: at least 12,000 feet AGL
Clouds: sky clear below 12,000 feet AGL
Weather: no significant weather observed at this time

METAR text: KCID 181952Z 28008KT 10SM CLR M08/M11 A3044 RMK AO2 SLP324 T10781106
Conditions at: KCID (CEDAR RAPIDS , IA, US) observed 1952 UTC 18 February 2019
Temperature: -7.8°C (18°F)
Dewpoint: -10.6°C (13°F) [RH = 80%]
Pressure (altimeter): 30.44 inches Hg (1030.9 mb)
[Sea-level pressure: 1032.4 mb]
Winds: from the W (280 degrees) at 9 MPH (8 knots; 4.1 m/s)
Visibility: 10 or more miles (16+ km)
Ceiling: at least 12,000 feet AGL
Clouds: sky clear below 12,000 feet AGL
Weather: no significant weather observed at this time

METAR text: KCID 181852Z 29007KT 10SM CLR M08/M11 A3044 RMK AO2 SLP322 T10831106
Conditions at: KCID (CEDAR RAPIDS , IA, US) observed 1852 UTC 18 February 2019
Temperature: -8.3°C (17°F)
Dewpoint: -10.6°C (13°F) [RH = 83%]
Pressure (altimeter): 30.44 inches Hg (1030.9 mb)
[Sea-level pressure: 1032.2 mb]
Winds: from the WNW (290 degrees) at 8 MPH (7 knots; 3.6 m/s)
Visibility: 10 or more miles (16+ km)
Ceiling: at least 12,000 feet AGL
Clouds: sky clear below 12,000 feet AGL
Weather: no significant weather observed at this time

METAR text: KCID 181752Z 30009KT 10SM CLR M09/M11 A3041 RMK AO2 SLP314 I6000 T10941111 11094 21139 51024
Conditions at: KCID (CEDAR RAPIDS , IA, US) observed 1752 UTC 18 February 2019
Temperature: -9.4°C (15°F)
Dewpoint: -11.1°C (12°F) [RH = 87%]
Pressure (altimeter): 30.41 inches Hg (1029.9 mb)
[Sea-level pressure: 1031.4 mb]
Winds: from the WNW (300 degrees) at 10 MPH (9 knots; 4.6 m/s)
Visibility: 10 or more miles (16+ km)
Ceiling: at least 12,000 feet AGL
Clouds: sky clear below 12,000 feet AGL
Weather: no significant weather observed at this time

METAR text: KCID 181652Z 30008KT 10SM CLR M10/M12 A3040 RMK AO2 SLP308 T11001117
Conditions at: KCID (CEDAR RAPIDS , IA, US) observed 1652 UTC 18 February 2019
Temperature: -10.0°C (14°F)
Dewpoint: -11.7°C (11°F) [RH = 87%]
Pressure (altimeter): 30.40 inches Hg (1029.5 mb)
[Sea-level pressure: 1030.8 mb]
Winds: from the WNW (300 degrees) at 9 MPH (8 knots; 4.1 m/s)
Visibility: 10 or more miles (16+ km)
Ceiling: at least 12,000 feet AGL
Clouds: sky clear below 12,000 feet AGL
Weather: no significant weather observed at this time

METAR text: KCID 181552Z 29007KT 10SM FEW036 M11/M12 A3038 RMK AO2 SLP302 T11111122
Conditions at: KCID (CEDAR RAPIDS , IA, US) observed 1552 UTC 18 February 2019
Temperature: -11.1°C (12°F)
Dewpoint: -12.2°C (10°F) [RH = 92%]
Pressure (altimeter): 30.38 inches Hg (1028.9 mb)
[Sea-level pressure: 1030.2 mb]
Winds: from the WNW (290 degrees) at 8 MPH (7 knots; 3.6 m/s)
Visibility: 10 or more miles (16+ km)
Ceiling: at least 12,000 feet AGL
Clouds: few clouds at 3600 feet AGL
Weather: no significant weather observed at this time

METAR text: KCID 181452Z 32009KT 10SM CLR M12/M12 A3034 RMK AO2 SLP290 I3000 T11171122 53036
Conditions at: KCID (CEDAR RAPIDS , IA, US) observed 1452 UTC 18 February 2019
Temperature: -11.7°C (11°F)
Dewpoint: -12.2°C (10°F) [RH = 96%]
Pressure (altimeter): 30.34 inches Hg (1027.5 mb)
[Sea-level pressure: 1029.0 mb]
Winds: from the NW (320 degrees) at 10 MPH (9 knots; 4.6 m/s)
Visibility: 10 or more miles (16+ km)
Ceiling: at least 12,000 feet AGL
Clouds: sky clear below 12,000 feet AGL
Weather: no significant weather observed at this time

METAR text: KCID 181352Z 32006KT 10SM FEW031 M13/M13 A3030 RMK AO2 SLP275 T11281128
Conditions at: KCID (CEDAR RAPIDS , IA, US) observed 1352 UTC 18 February 2019
Temperature: -12.8°C ( 9°F)
Dewpoint: -12.8°C ( 9°F) [RH = 100%]
Pressure (altimeter): 30.30 inches Hg (1026.2 mb)
[Sea-level pressure: 1027.5 mb]
Winds: from the NW (320 degrees) at 7 MPH (6 knots; 3.1 m/s)
Visibility: 10 or more miles (16+ km)
Ceiling: at least 12,000 feet AGL
Clouds: few clouds at 3100 feet AGL
Weather: no significant weather observed at this time

METAR text: KCID 181252Z 33006KT 8SM CLR M12/M12 A3025 RMK AO2 SLP259 I1000 T11221122
Conditions at: KCID (CEDAR RAPIDS , IA, US) observed 1252 UTC 18 February 2019
Temperature: -12.2°C (10°F)
Dewpoint: -12.2°C (10°F) [RH = 100%]
Pressure (altimeter): 30.25 inches Hg (1024.5 mb)
[Sea-level pressure: 1025.9 mb]
Winds: from the NNW (330 degrees) at 7 MPH (6 knots; 3.1 m/s)
Visibility: 8 miles (13 km)
Ceiling: at least 12,000 feet AGL
Clouds: sky clear below 12,000 feet AGL
Weather: no significant weather observed at this time

METAR text: KCID 181152Z 33006KT 9SM OVC044 M11/M11 A3023 RMK AO2 SLP252 60000 70009 T11111111 11067 21111 53028
Conditions at: KCID (CEDAR RAPIDS , IA, US) observed 1152 UTC 18 February 2019
Temperature: -11.1°C (12°F)
Dewpoint: -11.1°C (12°F) [RH = 100%]
Pressure (altimeter): 30.23 inches Hg (1023.8 mb)
[Sea-level pressure: 1025.2 mb]
Winds: from the NNW (330 degrees) at 7 MPH (6 knots; 3.1 m/s)
Visibility: 9 miles (14 km)
Ceiling: 4400 feet AGL
Clouds: overcast cloud deck at 4400 feet AGL
Weather: no significant weather observed at this time

METAR text: KCID 181052Z 34007KT 5SM BR OVC028 M09/M10 A3019 RMK AO2 SNB19E46 SLP239 P0000 T10941100
Conditions at: KCID (CEDAR RAPIDS , IA, US) observed 1052 UTC 18 February 2019
Temperature: -9.4°C (15°F)
Dewpoint: -10.0°C (14°F) [RH = 95%]
Pressure (altimeter): 30.19 inches Hg (1022.4 mb)
[Sea-level pressure: 1023.9 mb]
Winds: from the NNW (340 degrees) at 8 MPH (7 knots; 3.6 m/s)
Visibility: 5 miles ( 8 km)
Ceiling: 2800 feet AGL
Clouds: overcast cloud deck at 2800 feet AGL
Weather: BR  (mist)

METAR text: KCID 180952Z AUTO 34008KT 10SM OVC055 M08/M09 A3016 RMK AO2 SLP227 T10831089
Conditions at: KCID (CEDAR RAPIDS , IA, US) observed 0952 UTC 18 February 2019
Temperature: -8.3°C (17°F)
Dewpoint: -8.9°C (16°F) [RH = 95%]
Pressure (altimeter): 30.16 inches Hg (1021.4 mb)
[Sea-level pressure: 1022.7 mb]
Winds: from the NNW (340 degrees) at 9 MPH (8 knots; 4.1 m/s)
Visibility: 10 or more miles (16+ km)
Ceiling: 5500 feet AGL
Clouds: overcast cloud deck at 5500 feet AGL
Weather: automated observation with no human augmentation;
there may or may not be significant weather present at this time

METAR text: KCID 180852Z AUTO 35009KT 4SM BR BKN036 BKN120 M08/M09 A3014 RMK AO2 SNB07E51 SLP221 P0000 60000 T10831094 51018
Conditions at: KCID (CEDAR RAPIDS , IA, US) observed 0852 UTC 18 February 2019
Temperature: -8.3°C (17°F)
Dewpoint: -9.4°C (15°F) [RH = 92%]
Pressure (altimeter): 30.14 inches Hg (1020.7 mb)
[Sea-level pressure: 1022.1 mb]
Winds: from the N (350 degrees) at 10 MPH (9 knots; 4.6 m/s)
Visibility: 4 miles ( 6 km)
Ceiling: 3600 feet AGL
Clouds: broken clouds at 3600 feet AGL
broken clouds at 12000 feet AGL
Weather: BR  (mist)

METAR text: KCID 180848Z AUTO 34009KT 3SM -SN BR BKN036 BKN120 M08/M09 A3014 RMK AO2 SNB07 P0000
Conditions at: KCID (CEDAR RAPIDS , IA, US) observed 0848 UTC 18 February 2019
Temperature: -8.0°C (18°F)
Dewpoint: -9.0°C (16°F) [RH = 92%]
Pressure (altimeter): 30.14 inches Hg (1020.7 mb)
Winds: from the NNW (340 degrees) at 10 MPH (9 knots; 4.6 m/s)
Visibility: 3 miles ( 5 km)
Ceiling: 3600 feet AGL
Clouds: broken clouds at 3600 feet AGL
broken clouds at 12000 feet AGL
Weather: -SN BR  (light snow, mist)

METAR text: KCID 180824Z AUTO 35008KT 2SM -SN BR OVC039 M08/M09 A3014 RMK AO2 SNB07 P0000 T10781089
Conditions at: KCID (CEDAR RAPIDS , IA, US) observed 0824 UTC 18 February 2019
Temperature: -7.8°C (18°F)
Dewpoint: -8.9°C (16°F) [RH = 92%]
Pressure (altimeter): 30.14 inches Hg (1020.7 mb)
Winds: from the N (350 degrees) at 9 MPH (8 knots; 4.1 m/s)
Visibility: 2.00 miles (3.22 km)
Ceiling: 3900 feet AGL
Clouds: overcast cloud deck at 3900 feet AGL
Weather: -SN BR  (light snow, mist)

METAR text: KCID 180752Z AUTO 36010KT 7SM FEW016 OVC041 M07/M09 A3012 RMK AO2 SNE26 SLP215 P0000 T10721089
Conditions at: KCID (CEDAR RAPIDS , IA, US) observed 0752 UTC 18 February 2019
Temperature: -7.2°C (19°F)
Dewpoint: -8.9°C (16°F) [RH = 88%]
Pressure (altimeter): 30.12 inches Hg (1020.1 mb)
[Sea-level pressure: 1021.5 mb]
Winds: from the N (360 degrees) at 12 MPH (10 knots; 5.1 m/s)
Visibility: 7 miles (11 km)
Ceiling: 4100 feet AGL
Clouds: few clouds at 1600 feet AGL
overcast cloud deck at 4100 feet AGL
Weather: automated observation with no human augmentation;
there may or may not be significant weather present at this time

METAR text: KCID 180710Z AUTO 36010KT 3SM -SN BR FEW016 OVC041 M07/M08 A3010 RMK AO2 P0000 T10721078
Conditions at: KCID (CEDAR RAPIDS , IA, US) observed 0710 UTC 18 February 2019
Temperature: -7.2°C (19°F)
Dewpoint: -7.8°C (18°F) [RH = 95%]
Pressure (altimeter): 30.10 inches Hg (1019.4 mb)
Winds: from the N (360 degrees) at 12 MPH (10 knots; 5.1 m/s)
Visibility: 3 miles ( 5 km)
Ceiling: 4100 feet AGL
Clouds: few clouds at 1600 feet AGL
overcast cloud deck at 4100 feet AGL
Weather: -SN BR  (light snow, mist)

METAR text: KCID 180652Z AUTO 01008KT 2 1/2SM -SN BR FEW017 OVC039 M07/M08 A3009 RMK AO2 SLP203 P0000 T10671078
Conditions at: KCID (CEDAR RAPIDS , IA, US) observed 0652 UTC 18 February 2019
Temperature: -6.7°C (20°F)
Dewpoint: -7.8°C (18°F) [RH = 92%]
Pressure (altimeter): 30.09 inches Hg (1019.0 mb)
[Sea-level pressure: 1020.3 mb]
Winds: from the N (10 degrees) at 9 MPH (8 knots; 4.1 m/s)
Visibility: 2.50 miles (4.02 km)
Ceiling: 3900 feet AGL
Clouds: few clouds at 1700 feet AGL
overcast cloud deck at 3900 feet AGL
Weather: -SN BR  (light snow, mist)

METAR text: KCID 180634Z AUTO 01013KT 2 1/2SM -SN BR FEW015 OVC035 M07/M08 A3008 RMK AO2 P0000 T10671083
Conditions at: KCID (CEDAR RAPIDS , IA, US) observed 0634 UTC 18 February 2019
Temperature: -6.7°C (20°F)
Dewpoint: -8.3°C (17°F) [RH = 88%]
Pressure (altimeter): 30.08 inches Hg (1018.7 mb)
Winds: from the N (10 degrees) at 15 MPH (13 knots; 6.7 m/s)
Visibility: 2.50 miles (4.02 km)
Ceiling: 3500 feet AGL
Clouds: few clouds at 1500 feet AGL
overcast cloud deck at 3500 feet AGL
Weather: -SN BR  (light snow, mist)

METAR text: KCID 180625Z AUTO 01012KT 3SM -SN BR SCT017 OVC033 M07/M08 A3007 RMK AO2 P0000 T10671078
Conditions at: KCID (CEDAR RAPIDS , IA, US) observed 0625 UTC 18 February 2019
Temperature: -6.7°C (20°F)
Dewpoint: -7.8°C (18°F) [RH = 92%]
Pressure (altimeter): 30.07 inches Hg (1018.4 mb)
Winds: from the N (10 degrees) at 14 MPH (12 knots; 6.2 m/s)
Visibility: 3 miles ( 5 km)
Ceiling: 3300 feet AGL
Clouds: scattered clouds at 1700 feet AGL
overcast cloud deck at 3300 feet AGL
Weather: -SN BR  (light snow, mist)

METAR text: KCID 180613Z AUTO 01010KT 2 1/2SM -SN BR SCT016 OVC031 M07/M08 A3007 RMK AO2 P0000 T10671078
Conditions at: KCID (CEDAR RAPIDS , IA, US) observed 0613 UTC 18 February 2019
Temperature: -6.7°C (20°F)
Dewpoint: -7.8°C (18°F) [RH = 92%]
Pressure (altimeter): 30.07 inches Hg (1018.4 mb)
Winds: from the N (10 degrees) at 12 MPH (10 knots; 5.1 m/s)
Visibility: 2.50 miles (4.02 km)
Ceiling: 3100 feet AGL
Clouds: scattered clouds at 1600 feet AGL
overcast cloud deck at 3100 feet AGL
Weather: -SN BR  (light snow, mist)

METAR text: KCID 180552Z AUTO 01012KT 4SM -SN BR BKN015 OVC041 M07/M08 A3006 RMK AO2 SLP192 P0000 60001 T10671078 11033 21067 410331067 51027
Conditions at: KCID (CEDAR RAPIDS , IA, US) observed 0552 UTC 18 February 2019
Temperature: -6.7°C (20°F)
Dewpoint: -7.8°C (18°F) [RH = 92%]
Pressure (altimeter): 30.06 inches Hg (1018.0 mb)
[Sea-level pressure: 1019.2 mb]
Winds: from the N (10 degrees) at 14 MPH (12 knots; 6.2 m/s)
Visibility: 4 miles ( 6 km)
Ceiling: 1500 feet AGL
Clouds: broken clouds at 1500 feet AGL
overcast cloud deck at 4100 feet AGL
Weather: -SN BR  (light snow, mist)

METAR text: KCID 180530Z AUTO 01010KT 3SM -SN BR BKN015 OVC035 M06/M08 A3005 RMK AO2 P0000 T10611078
Conditions at: KCID (CEDAR RAPIDS , IA, US) observed 0530 UTC 18 February 2019
Temperature: -6.1°C (21°F)
Dewpoint: -7.8°C (18°F) [RH = 88%]
Pressure (altimeter): 30.05 inches Hg (1017.7 mb)
Winds: from the N (10 degrees) at 12 MPH (10 knots; 5.1 m/s)
Visibility: 3 miles ( 5 km)
Ceiling: 1500 feet AGL
Clouds: broken clouds at 1500 feet AGL
overcast cloud deck at 3500 feet AGL
Weather: -SN BR  (light snow, mist)

METAR text: KCID 180452Z 01011KT 3SM -SN BR OVC013 M06/M07 A3003 RMK AO2 SLP182 P0000 T10561072
Conditions at: KCID (CEDAR RAPIDS , IA, US) observed 0452 UTC 18 February 2019
Temperature: -5.6°C (22°F)
Dewpoint: -7.2°C (19°F) [RH = 88%]
Pressure (altimeter): 30.03 inches Hg (1017.0 mb)
[Sea-level pressure: 1018.2 mb]
Winds: from the N (10 degrees) at 13 MPH (11 knots; 5.7 m/s)
Visibility: 3 miles ( 5 km)
Ceiling: 1300 feet AGL
Clouds: overcast cloud deck at 1300 feet AGL
Weather: -SN BR  (light snow, mist)

METAR text: KCID 180352Z 02007KT 3SM -SN BR FEW011 OVC039 M06/M07 A3001 RMK AO2 SLP175 P0000 T10561067
Conditions at: KCID (CEDAR RAPIDS , IA, US) observed 0352 UTC 18 February 2019
Temperature: -5.6°C (22°F)
Dewpoint: -6.7°C (20°F) [RH = 92%]
Pressure (altimeter): 30.01 inches Hg (1016.3 mb)
[Sea-level pressure: 1017.5 mb]
Winds: from the NNE (20 degrees) at 8 MPH (7 knots; 3.6 m/s)
Visibility: 3 miles ( 5 km)
Ceiling: 3900 feet AGL
Clouds: few clouds at 1100 feet AGL
overcast cloud deck at 3900 feet AGL
Weather: -SN BR  (light snow, mist)

METAR text: KCID 180301Z 05012KT 3SM -SN BR SCT011 OVC039 M06/M07 A2998 RMK AO2 P0000 T10561067
Conditions at: KCID (CEDAR RAPIDS , IA, US) observed 0301 UTC 18 February 2019
Temperature: -5.6°C (22°F)
Dewpoint: -6.7°C (20°F) [RH = 92%]
Pressure (altimeter): 29.98 inches Hg (1015.3 mb)
Winds: from the NE (50 degrees) at 14 MPH (12 knots; 6.2 m/s)
Visibility: 3 miles ( 5 km)
Ceiling: 3900 feet AGL
Clouds: scattered clouds at 1100 feet AGL
overcast cloud deck at 3900 feet AGL
Weather: -SN BR  (light snow, mist)

METAR text: KCID 180252Z 04015G20KT 2 1/2SM -SN BR BKN011 BKN018 OVC037 M05/M07 A2998 RMK AO2 SLP163 P0000 60001 T10501067 53017
Conditions at: KCID (CEDAR RAPIDS , IA, US) observed 0252 UTC 18 February 2019
Temperature: -5.0°C (23°F)
Dewpoint: -6.7°C (20°F) [RH = 88%]
Pressure (altimeter): 29.98 inches Hg (1015.3 mb)
[Sea-level pressure: 1016.3 mb]
Winds: from the NE (40 degrees) at 17 MPH (15 knots; 7.7 m/s)
gusting to 23 MPH (20 knots; 10.3 m/s)
Visibility: 2.50 miles (4.02 km)
Ceiling: 1100 feet AGL
Clouds: broken clouds at 1100 feet AGL
broken clouds at 1800 feet AGL
overcast cloud deck at 3700 feet AGL
Weather: -SN BR  (light snow, mist)

METAR text: KCID 180152Z 02012KT 2 1/2SM -SN BR BKN011 BKN018 OVC031 M04/M06 A2995 RMK AO2 SLP155 P0000 T10441061
Conditions at: KCID (CEDAR RAPIDS , IA, US) observed 0152 UTC 18 February 2019
Temperature: -4.4°C (24°F)
Dewpoint: -6.1°C (21°F) [RH = 88%]
Pressure (altimeter): 29.95 inches Hg (1014.3 mb)
[Sea-level pressure: 1015.5 mb]
Winds: from the NNE (20 degrees) at 14 MPH (12 knots; 6.2 m/s)
Visibility: 2.50 miles (4.02 km)
Ceiling: 1100 feet AGL
Clouds: broken clouds at 1100 feet AGL
broken clouds at 1800 feet AGL
overcast cloud deck at 3100 feet AGL
Weather: -SN BR  (light snow, mist)

METAR text: KCID 180052Z 03015KT 2SM -SN BR OVC011 M04/M05 A2993 RMK AO2 SLP147 P0001 T10391050
Conditions at: KCID (CEDAR RAPIDS , IA, US) observed 0052 UTC 18 February 2019
Temperature: -3.9°C (25°F)
Dewpoint: -5.0°C (23°F) [RH = 92%]
Pressure (altimeter): 29.93 inches Hg (1013.6 mb)
[Sea-level pressure: 1014.7 mb]
Winds: from the NNE (30 degrees) at 17 MPH (15 knots; 7.7 m/s)
Visibility: 2.00 miles (3.22 km)
Ceiling: 1100 feet AGL
Clouds: overcast cloud deck at 1100 feet AGL
Weather: -SN BR  (light snow, mist)

METAR text: KCID 180047Z 04012KT 2 1/2SM -SN BR OVC011 M04/M05 A2992 RMK AO2 P0001
Conditions at: KCID (CEDAR RAPIDS , IA, US) observed 0047 UTC 18 February 2019
Temperature: -4.0°C (25°F)
Dewpoint: -5.0°C (23°F) [RH = 93%]
Pressure (altimeter): 29.92 inches Hg (1013.3 mb)
Winds: from the NE (40 degrees) at 14 MPH (12 knots; 6.2 m/s)
Visibility: 2.50 miles (4.02 km)
Ceiling: 1100 feet AGL
Clouds: overcast cloud deck at 1100 feet AGL
Weather: -SN BR  (light snow, mist)

METAR text: KCID 180017Z 02011KT 1 3/4SM -SN BR OVC011 M04/M04 A2990 RMK AO2 P0001 T10391044
Conditions at: KCID (CEDAR RAPIDS , IA, US) observed 0017 UTC 18 February 2019
Temperature: -3.9°C (25°F)
Dewpoint: -4.4°C (24°F) [RH = 96%]
Pressure (altimeter): 29.90 inches Hg (1012.6 mb)
Winds: from the NNE (20 degrees) at 13 MPH (11 knots; 5.7 m/s)
Visibility: 1.75 miles (2.82 km)
Ceiling: 1100 feet AGL
Clouds: overcast cloud deck at 1100 feet AGL
Weather: -SN BR  (light snow, mist)

METAR text: KCID 172352Z 00000KT 1SM R09/5000VP6000FT -SN BR OVC006 M04/M04 A2988 RMK AO2 SLP131 P0003 60006 T10391039 11033 21044 51014
Conditions at: KCID (CEDAR RAPIDS , IA, US) observed 2352 UTC 17 February 2019
Temperature: -3.9°C (25°F)
Dewpoint: -3.9°C (25°F) [RH = 100%]
Pressure (altimeter): 29.88 inches Hg (1011.9 mb)
[Sea-level pressure: 1013.1 mb]
Winds: calm
Visibility: 1.00 miles (1.61 km)
Ceiling: 600 feet AGL
Clouds: overcast cloud deck at 600 feet AGL
Weather: -SN BR  (light snow, mist)

METAR text: KCID 172349Z 00000KT 1SM R09/4500VP6000FT -SN BR OVC006 M04/M04 A2988 RMK AO2 P0003
Conditions at: KCID (CEDAR RAPIDS , IA, US) observed 2349 UTC 17 February 2019
Temperature: -4.0°C (25°F)
Dewpoint: -4.0°C (25°F) [RH = 100%]
Pressure (altimeter): 29.88 inches Hg (1011.9 mb)
Winds: calm
Visibility: 1.00 miles (1.61 km)
Ceiling: 600 feet AGL
Clouds: overcast cloud deck at 600 feet AGL
Weather: -SN BR  (light snow, mist)

METAR text: KCID 172252Z 30004KT 1SM R09/4500VP6000FT -SN BR BKN020 BKN024 OVC033 M04/M04 A2986 RMK AO2 SLP123 P0001 T10441044
Conditions at: KCID (CEDAR RAPIDS , IA, US) observed 2252 UTC 17 February 2019
Temperature: -4.4°C (24°F)
Dewpoint: -4.4°C (24°F) [RH = 100%]
Pressure (altimeter): 29.86 inches Hg (1011.3 mb)
[Sea-level pressure: 1012.3 mb]
Winds: from the WNW (300 degrees) at 5 MPH (4 knots; 2.1 m/s)
Visibility: 1.00 miles (1.61 km)
Ceiling: 2000 feet AGL
Clouds: broken clouds at 2000 feet AGL
broken clouds at 2400 feet AGL
overcast cloud deck at 3300 feet AGL
Weather: -SN BR  (light snow, mist)

METAR text: KCID 172203Z 00000KT 1SM R09/4500VP6000FT -SN BR BKN021 BKN028 OVC040 M04/M04 A2984 RMK AO2 P0001 T10391044
Conditions at: KCID (CEDAR RAPIDS , IA, US) observed 2203 UTC 17 February 2019
Temperature: -3.9°C (25°F)
Dewpoint: -4.4°C (24°F) [RH = 96%]
Pressure (altimeter): 29.84 inches Hg (1010.6 mb)
Winds: calm
Visibility: 1.00 miles (1.61 km)
Ceiling: 2100 feet AGL
Clouds: broken clouds at 2100 feet AGL
broken clouds at 2800 feet AGL
overcast cloud deck at 4000 feet AGL
Weather: -SN BR  (light snow, mist)

METAR text: KCID 172152Z 00000KT 3/4SM R09/4000V5500FT -SN BR BKN020 OVC031 M04/M04 A2984 RMK AO2 SLP117 P0000 T10391044
Conditions at: KCID (CEDAR RAPIDS , IA, US) observed 2152 UTC 17 February 2019
Temperature: -3.9°C (25°F)
Dewpoint: -4.4°C (24°F) [RH = 96%]
Pressure (altimeter): 29.84 inches Hg (1010.6 mb)
[Sea-level pressure: 1011.7 mb]
Winds: calm
Visibility: 0.75 miles (1.21 km)
Ceiling: 2000 feet AGL
Clouds: broken clouds at 2000 feet AGL
overcast cloud deck at 3100 feet AGL
Weather: -SN BR  (light snow, mist)

METAR text: KCID 172138Z 00000KT 3/4SM R09/3500VP6000FT -SN BR FEW015 BKN022 OVC031 M04/M04 A2984 RMK AO2 P0000 T10391044
Conditions at: KCID (CEDAR RAPIDS , IA, US) observed 2138 UTC 17 February 2019
Temperature: -3.9°C (25°F)
Dewpoint: -4.4°C (24°F) [RH = 96%]
Pressure (altimeter): 29.84 inches Hg (1010.6 mb)
Winds: calm
Visibility: 0.75 miles (1.21 km)
Ceiling: 2200 feet AGL
Clouds: few clouds at 1500 feet AGL
broken clouds at 2200 feet AGL
overcast cloud deck at 3100 feet AGL
Weather: -SN BR  (light snow, mist)

METAR text: KCID 172052Z 06004KT 1 1/4SM -SN BR BKN024 OVC033 M04/M05 A2983 RMK AO2 SLP112 P0001 60002 T10391050 55000
Conditions at: KCID (CEDAR RAPIDS , IA, US) observed 2052 UTC 17 February 2019
Temperature: -3.9°C (25°F)
Dewpoint: -5.0°C (23°F) [RH = 92%]
Pressure (altimeter): 29.83 inches Hg (1010.2 mb)
[Sea-level pressure: 1011.2 mb]
Winds: from the ENE (60 degrees) at 5 MPH (4 knots; 2.1 m/s)
Visibility: 1.25 miles (2.01 km)
Ceiling: 2400 feet AGL
Clouds: broken clouds at 2400 feet AGL
overcast cloud deck at 3300 feet AGL
Weather: -SN BR  (light snow, mist)

METAR text: KCID 172008Z 06008KT 1SM R09/4500VP6000FT -SN BR VV015 M04/M05 A2982 RMK AO2 P0000 T10391050
Conditions at: KCID (CEDAR RAPIDS , IA, US) observed 2008 UTC 17 February 2019
Temperature: -3.9°C (25°F)
Dewpoint: -5.0°C (23°F) [RH = 92%]
Pressure (altimeter): 29.82 inches Hg (1009.9 mb)
Winds: from the ENE (60 degrees) at 9 MPH (8 knots; 4.1 m/s)
Visibility: 1.00 miles (1.61 km)
Ceiling: indefinite ceiling with vertical visibility of 1500 feet AGL
Clouds: obscured sky
Weather: -SN BR  (light snow, mist)

METAR text: KCID 171952Z 07008KT 1/2SM R09/2400V3500FT SN FZFG VV013 M04/M05 A2982 RMK AO2 SLP109 P0001 T10391050
Conditions at: KCID (CEDAR RAPIDS , IA, US) observed 1952 UTC 17 February 2019
Temperature: -3.9°C (25°F)
Dewpoint: -5.0°C (23°F) [RH = 92%]
Pressure (altimeter): 29.82 inches Hg (1009.9 mb)
[Sea-level pressure: 1010.9 mb]
Winds: from the ENE (70 degrees) at 9 MPH (8 knots; 4.1 m/s)
Visibility: 0.50 miles (0.80 km)
Ceiling: indefinite ceiling with vertical visibility of 1300 feet AGL
Clouds: obscured sky
Weather: SN FZFG  (moderate snow, freezing fog)

METAR text: KCID 171941Z 07008KT 3/4SM R09/2800V5500FT -SN BR BKN018 OVC027 M04/M06 A2982 RMK AO2 P0001 T10391056
Conditions at: KCID (CEDAR RAPIDS , IA, US) observed 1941 UTC 17 February 2019
Temperature: -3.9°C (25°F)
Dewpoint: -5.6°C (22°F) [RH = 88%]
Pressure (altimeter): 29.82 inches Hg (1009.9 mb)
Winds: from the ENE (70 degrees) at 9 MPH (8 knots; 4.1 m/s)
Visibility: 0.75 miles (1.21 km)
Ceiling: 1800 feet AGL
Clouds: broken clouds at 1800 feet AGL
overcast cloud deck at 2700 feet AGL
Weather: -SN BR  (light snow, mist)

METAR text: KCID 171852Z 07009KT 1 3/4SM -SN BR OVC026 M04/M06 A2982 RMK AO2 SLP110 P0000 T10441056
Conditions at: KCID (CEDAR RAPIDS , IA, US) observed 1852 UTC 17 February 2019
Temperature: -4.4°C (24°F)
Dewpoint: -5.6°C (22°F) [RH = 91%]
Pressure (altimeter): 29.82 inches Hg (1009.9 mb)
[Sea-level pressure: 1011.0 mb]
Winds: from the ENE (70 degrees) at 10 MPH (9 knots; 4.6 m/s)
Visibility: 1.75 miles (2.82 km)
Ceiling: 2600 feet AGL
Clouds: overcast cloud deck at 2600 feet AGL
Weather: -SN BR  (light snow, mist)

METAR text: KCID 171752Z 07011KT 1 3/4SM -SN BR OVC028 M04/M06 A2983 RMK AO2 SLP111 P0000 60002 T10441061 11044 21056 53001
Conditions at: KCID (CEDAR RAPIDS , IA, US) observed 1752 UTC 17 February 2019
Temperature: -4.4°C (24°F)
Dewpoint: -6.1°C (21°F) [RH = 88%]
Pressure (altimeter): 29.83 inches Hg (1010.2 mb)
[Sea-level pressure: 1011.1 mb]
Winds: from the ENE (70 degrees) at 13 MPH (11 knots; 5.7 m/s)
Visibility: 1.75 miles (2.82 km)
Ceiling: 2800 feet AGL
Clouds: overcast cloud deck at 2800 feet AGL
Weather: -SN BR  (light snow, mist)

METAR text: KCID 171652Z 06010KT 1 3/4SM -SN BR FEW012 FEW017 OVC023 M05/M06 A2983 RMK AO2 SLP114 P0000 T10501061
Conditions at: KCID (CEDAR RAPIDS , IA, US) observed 1652 UTC 17 February 2019
Temperature: -5.0°C (23°F)
Dewpoint: -6.1°C (21°F) [RH = 92%]
Pressure (altimeter): 29.83 inches Hg (1010.2 mb)
[Sea-level pressure: 1011.4 mb]
Winds: from the ENE (60 degrees) at 12 MPH (10 knots; 5.1 m/s)
Visibility: 1.75 miles (2.82 km)
Ceiling: 2300 feet AGL
Clouds: few clouds at 1200 feet AGL
few clouds at 1700 feet AGL
overcast cloud deck at 2300 feet AGL
Weather: -SN BR  (light snow, mist)

Forecast for: KCID (CEDAR RAPIDS , IA, US)
Text: KCID 182320Z 1900/1924 30006KT P6SM SKC
Forecast period: 0000 to 1000 UTC 19 February 2019
Forecast type: FROM: standard forecast or significant change
Winds: from the WNW (300 degrees) at 7 MPH (6 knots; 3.1 m/s)
Visibility: 6 or more miles 10+ km)
Clouds: clear skies
Weather: no significant weather forecast for this period
Text: FM191000 VRB03KT P6SM SCT060
Forecast period: 1000 to 2000 UTC 19 February 2019
Forecast type: FROM: standard forecast or significant change
Winds: variable direction winds at 3 MPH (3 knots; 1.5 m/s)
Visibility: 6 or more miles 10+ km)
Ceiling: at least 12,000 feet AGL
Clouds: scattered clouds at 6000 feet AGL
Weather: no significant weather forecast for this period
Text: FM192000 08007KT P6SM OVC100
Forecast period: 2000 UTC 19 February 2019 to 0000 UTC 20 February 2019
Forecast type: FROM: standard forecast or significant change
Winds: from the E (80 degrees) at 8 MPH (7 knots; 3.6 m/s)
Visibility: 6 or more miles 10+ km)
Ceiling: 10000 feet AGL
Clouds: overcast cloud deck at 10000 feet AGL
Weather: no significant weather forecast for this period